KNXP

Twentynine Palms Self Airport

Twentynine Palms, California, USA
METAR KNXP 181456Z 30007KT 10SM CLR 14/03 A3023 RMK AO2 SLP215 T01390033 51013
Observed Flight Rules
Oct-18 @ 14:56 UTC (an hour ago) Visual Flight Rules
Wind Visibility Clouds
300° at 7 knots 10 miles
  • Clear skies
Temperatures Readings
Current 14°C / 57°F
Dewpoint 3°C / 37°F
Humidity 48%
Altimeter 30.23" Hg
Pressure 1021.5 hPa
Elevation 626
METAR KNXP 181456Z 30007KT 10SM CLR 14/03 A3023 RMK AO2 SLP215 T01390033 51013
Observed Flight Rules
Oct-18 @ 14:56 UTC
(an hour ago)
VFR
Wind Visibility
300° at 7 knots 10 miles
Clouds
  • Clear skies
Temperature Dewpoint
14°C / 57°F 3°C / 37°F
Humidity Altimeter Pressure
48% 30.23" Hg 1021.5 hPa